createdAt,value
2023-05-16T00:02:07.586Z,14.98
2023-05-16T00:04:36.839Z,14.96
2023-05-16T00:07:05.021Z,14.95
2023-05-16T00:09:32.849Z,14.94
2023-05-16T00:12:00.991Z,14.92
2023-05-16T00:14:28.984Z,14.91
2023-05-16T00:16:59.731Z,14.89
2023-05-16T00:19:30.174Z,14.87
2023-05-16T00:21:57.939Z,14.85
2023-05-16T00:24:25.966Z,14.84
2023-05-16T00:26:53.811Z,14.83
2023-05-16T00:29:24.462Z,14.81
2023-05-16T00:31:52.567Z,14.81
2023-05-16T00:34:21.481Z,14.79
2023-05-16T00:36:52.999Z,14.79
2023-05-16T00:39:21.068Z,14.78
2023-05-16T00:41:49.177Z,14.78
2023-05-16T00:44:17.418Z,14.77
2023-05-16T00:46:45.539Z,14.78
2023-05-16T00:49:13.493Z,14.80
2023-05-16T00:51:41.997Z,14.80
2023-05-16T00:54:10.781Z,14.81
2023-05-16T00:56:38.547Z,14.84
2023-05-16T00:59:06.817Z,14.85
2023-05-16T01:01:35.416Z,14.87
2023-05-16T01:04:03.727Z,14.90
2023-05-16T01:06:33.786Z,14.92
2023-05-16T01:09:01.772Z,14.93
2023-05-16T01:11:39.684Z,14.94
2023-05-16T01:14:17.147Z,14.95
2023-05-16T01:16:51.235Z,14.96
2023-05-16T01:19:25.229Z,14.97
2023-05-16T01:22:16.446Z,14.98
2023-05-16T01:24:53.779Z,14.99
2023-05-16T01:27:23.202Z,15.00
2023-05-16T01:29:56.181Z,15.02
2023-05-16T01:32:24.797Z,15.02
2023-05-16T01:34:53.360Z,15.02
2023-05-16T01:37:34.130Z,15.02
2023-05-16T01:40:13.050Z,15.03
2023-05-16T01:42:43.886Z,15.04
2023-05-16T01:45:26.954Z,15.04
2023-05-16T01:48:07.521Z,15.05
2023-05-16T01:50:39.129Z,15.06
2023-05-16T01:53:11.368Z,15.05
2023-05-16T01:55:58.401Z,15.06
2023-05-16T01:58:28.629Z,15.05
2023-05-16T02:01:03.808Z,15.07
2023-05-16T02:03:32.126Z,15.07
2023-05-16T02:06:01.090Z,15.07
2023-05-16T02:08:29.563Z,15.07
2023-05-16T02:10:57.402Z,15.07
2023-05-16T02:13:25.205Z,15.07
2023-05-16T02:15:53.107Z,15.06
2023-05-16T02:18:20.992Z,15.04
2023-05-16T02:20:48.894Z,15.03
2023-05-16T02:23:17.004Z,15.00
2023-05-16T02:25:44.883Z,14.98
2023-05-16T02:28:12.820Z,14.96
2023-05-16T02:30:41.313Z,14.94
2023-05-16T02:33:10.192Z,14.92
2023-05-16T02:35:38.119Z,14.89
2023-05-16T02:38:06.047Z,14.87
2023-05-16T02:40:33.973Z,14.83
2023-05-16T02:43:01.883Z,14.79
2023-05-16T02:45:29.822Z,14.76
2023-05-16T02:47:57.811Z,14.72
2023-05-16T02:50:25.550Z,14.67
2023-05-16T02:52:53.590Z,14.63
2023-05-16T02:55:22.692Z,14.59
2023-05-16T02:57:51.197Z,14.55
2023-05-16T03:00:19.875Z,14.52
2023-05-16T03:02:48.313Z,14.50
2023-05-16T03:05:17.188Z,14.48
2023-05-16T03:07:45.483Z,14.48
2023-05-16T03:10:13.393Z,14.47
2023-05-16T03:12:41.355Z,14.45
2023-05-16T03:15:09.795Z,14.45
2023-05-16T03:17:37.767Z,14.43
2023-05-16T03:20:09.037Z,14.41
2023-05-16T03:22:37.229Z,14.39
2023-05-16T03:25:05.555Z,14.39
2023-05-16T03:27:33.538Z,14.38
2023-05-16T03:30:01.344Z,14.38
2023-05-16T03:32:29.633Z,14.38
2023-05-16T03:34:57.534Z,14.38
2023-05-16T03:37:26.224Z,14.37
2023-05-16T03:39:54.420Z,14.37
2023-05-16T03:42:22.341Z,14.37
2023-05-16T03:44:50.182Z,14.37
2023-05-16T03:47:18.008Z,14.37
2023-05-16T03:49:45.778Z,14.37
2023-05-16T03:52:13.578Z,14.37
2023-05-16T03:54:41.428Z,14.37
2023-05-16T03:57:09.568Z,14.37
2023-05-16T03:59:39.114Z,14.37
2023-05-16T04:02:07.112Z,14.38
2023-05-16T04:04:35.377Z,14.38
2023-05-16T04:07:03.452Z,14.37
2023-05-16T04:09:31.434Z,14.36
2023-05-16T04:12:02.012Z,14.35
2023-05-16T04:14:30.043Z,14.34
2023-05-16T04:16:58.027Z,14.34
2023-05-16T04:19:26.198Z,14.33
2023-05-16T04:21:54.399Z,14.34
2023-05-16T04:24:26.464Z,14.34
2023-05-16T04:26:55.361Z,14.35
2023-05-16T04:29:23.630Z,14.34
2023-05-16T04:31:51.658Z,14.34
2023-05-16T04:34:19.661Z,14.35
2023-05-16T04:36:47.700Z,14.35
2023-05-16T04:39:15.509Z,14.36
2023-05-16T04:41:43.383Z,14.36
2023-05-16T04:44:11.541Z,14.36
2023-05-16T04:46:39.867Z,14.37
2023-05-16T04:49:08.324Z,14.38
2023-05-16T04:51:36.316Z,14.39
2023-05-16T04:54:05.376Z,14.40
2023-05-16T04:56:33.172Z,14.41
2023-05-16T04:59:00.919Z,14.42
2023-05-16T05:01:28.965Z,14.42
2023-05-16T05:03:56.866Z,14.44
2023-05-16T05:06:24.709Z,14.45
2023-05-16T05:08:53.156Z,14.45
2023-05-16T05:11:21.534Z,14.45
2023-05-16T05:13:50.801Z,14.46
2023-05-16T05:16:20.862Z,14.47
2023-05-16T05:18:48.785Z,14.48
2023-05-16T05:21:16.913Z,14.48
2023-05-16T05:23:44.690Z,14.49
2023-05-16T05:26:12.661Z,14.49
2023-05-16T05:28:43.657Z,14.50
2023-05-16T05:31:16.676Z,14.51
2023-05-16T05:33:44.551Z,14.52
2023-05-16T05:36:12.452Z,14.53
2023-05-16T05:38:40.513Z,14.54
2023-05-16T05:41:08.415Z,14.55
2023-05-16T05:43:36.359Z,14.55
2023-05-16T05:46:04.610Z,14.56
2023-05-16T05:48:33.128Z,14.57
2023-05-16T05:51:01.253Z,14.59
2023-05-16T05:53:29.438Z,14.62
2023-05-16T05:55:57.257Z,14.65
2023-05-16T05:58:25.328Z,14.68
2023-05-16T06:00:53.056Z,14.72
2023-05-16T06:03:21.723Z,14.76
2023-05-16T06:05:50.106Z,14.80
2023-05-16T06:08:18.040Z,14.84
2023-05-16T06:10:46.199Z,14.88
2023-05-16T06:13:14.035Z,14.92
2023-05-16T06:15:41.872Z,14.95
2023-05-16T06:18:09.907Z,14.99
2023-05-16T06:20:37.912Z,15.02
2023-05-16T06:23:05.887Z,15.05
2023-05-16T06:25:33.659Z,15.09
2023-05-16T06:28:01.675Z,15.11
2023-05-16T06:30:29.490Z,15.13
2023-05-16T06:32:57.297Z,15.15
2023-05-16T06:35:25.737Z,15.18
2023-05-16T06:37:53.679Z,15.20
2023-05-16T06:40:21.514Z,15.23
2023-05-16T06:42:49.333Z,15.25
2023-05-16T06:45:17.550Z,15.28
2023-05-16T06:47:45.575Z,15.29
2023-05-16T06:50:14.036Z,15.32
2023-05-16T06:52:42.287Z,15.34
2023-05-16T06:55:10.789Z,15.36
2023-05-16T06:57:38.863Z,15.38
2023-05-16T07:00:08.528Z,15.40
2023-05-16T07:02:36.448Z,15.41
2023-05-16T07:05:04.757Z,15.43
2023-05-16T07:07:32.615Z,15.44
2023-05-16T07:10:01.007Z,15.45
2023-05-16T07:12:28.960Z,15.47
2023-05-16T07:14:56.964Z,15.49
2023-05-16T07:17:24.868Z,15.50
2023-05-16T07:19:52.783Z,15.52
2023-05-16T07:22:20.801Z,15.53
2023-05-16T07:24:49.060Z,15.55
2023-05-16T07:27:17.023Z,15.56
2023-05-16T07:29:44.800Z,15.57
2023-05-16T07:32:12.711Z,15.58
2023-05-16T07:34:41.059Z,15.60
2023-05-16T07:37:12.916Z,15.60
2023-05-16T07:39:40.971Z,15.62
2023-05-16T07:42:09.376Z,15.63
2023-05-16T07:44:37.353Z,15.64
2023-05-16T07:47:05.405Z,15.65
2023-05-16T07:49:33.380Z,15.65
2023-05-16T07:52:01.470Z,15.64
2023-05-16T07:54:29.335Z,15.63
2023-05-16T07:56:57.292Z,15.63
2023-05-16T07:59:25.255Z,15.61
2023-05-16T08:01:53.232Z,15.59
2023-05-16T08:04:21.111Z,15.57
2023-05-16T08:06:50.018Z,15.56
2023-05-16T08:09:17.962Z,15.53
2023-05-16T08:11:46.474Z,15.52
2023-05-16T08:14:14.477Z,15.50
2023-05-16T08:16:42.524Z,15.48
2023-05-16T08:19:10.705Z,15.46
2023-05-16T08:21:38.664Z,15.45
2023-05-16T08:24:06.789Z,15.44
2023-05-16T08:26:35.721Z,15.43
2023-05-16T08:29:03.716Z,15.41
2023-05-16T08:31:31.836Z,15.41
2023-05-16T08:34:01.630Z,15.40
2023-05-16T08:36:29.689Z,15.39
2023-05-16T08:38:57.681Z,15.38
2023-05-16T08:41:26.157Z,15.38
2023-05-16T08:43:54.665Z,15.38
2023-05-16T08:46:23.574Z,15.37
2023-05-16T08:48:52.844Z,15.37
2023-05-16T08:51:21.487Z,15.37
2023-05-16T08:54:01.578Z,15.36
2023-05-16T08:56:29.883Z,15.37
2023-05-16T08:58:58.323Z,15.37
2023-05-16T09:01:26.522Z,15.37
2023-05-16T09:03:55.681Z,15.37
2023-05-16T09:06:24.880Z,15.37
2023-05-16T09:08:56.529Z,15.38
2023-05-16T09:11:24.579Z,15.38
2023-05-16T09:13:52.445Z,15.39
2023-05-16T09:16:21.198Z,15.40
2023-05-16T09:18:57.364Z,15.40
2023-05-16T09:21:29.914Z,15.41
2023-05-16T09:24:02.735Z,15.41
2023-05-16T09:26:31.861Z,15.42
2023-05-16T09:28:59.705Z,15.42
2023-05-16T09:31:30.744Z,15.43
2023-05-16T09:33:58.856Z,15.43
2023-05-16T09:36:26.768Z,15.45
2023-05-16T09:38:54.705Z,15.46
2023-05-16T09:41:23.091Z,15.46
2023-05-16T09:43:51.158Z,15.48
2023-05-16T09:46:20.011Z,15.48
2023-05-16T09:48:48.214Z,15.49
2023-05-16T09:51:16.479Z,15.50
2023-05-16T09:53:44.384Z,15.52
2023-05-16T09:56:12.903Z,15.52
2023-05-16T09:58:42.195Z,15.53
2023-05-16T10:01:10.996Z,15.55
2023-05-16T10:03:40.132Z,15.56
2023-05-16T10:06:09.168Z,15.58
2023-05-16T10:08:37.696Z,15.59
2023-05-16T10:11:06.539Z,15.62
2023-05-16T10:13:35.989Z,15.63
2023-05-16T10:16:11.501Z,15.65
2023-05-16T10:18:40.618Z,15.67
2023-05-16T10:21:11.972Z,15.69
2023-05-16T10:23:44.240Z,15.72
2023-05-16T10:26:14.337Z,15.74
2023-05-16T10:28:42.766Z,15.77
2023-05-16T10:31:11.439Z,15.79
2023-05-16T10:33:39.744Z,15.81
2023-05-16T10:36:12.135Z,15.83
2023-05-16T10:38:40.729Z,15.85
2023-05-16T10:41:09.773Z,15.87
2023-05-16T10:43:37.805Z,15.89
2023-05-16T10:46:07.796Z,15.92
2023-05-16T10:48:36.965Z,15.94
2023-05-16T10:51:25.152Z,15.97
2023-05-16T10:54:04.852Z,16.01
2023-05-16T10:56:33.249Z,16.06
2023-05-16T10:59:01.468Z,16.11
2023-05-16T11:01:30.541Z,16.16
2023-05-16T11:03:58.601Z,16.22
2023-05-16T11:06:27.402Z,16.27
2023-05-16T11:09:09.882Z,16.33
2023-05-16T11:11:48.617Z,16.39
2023-05-16T11:14:22.419Z,16.45
2023-05-16T11:17:00.183Z,16.51
2023-05-16T11:19:30.950Z,16.57
2023-05-16T11:22:12.125Z,16.62
2023-05-16T11:24:49.003Z,16.67
2023-05-16T11:27:24.473Z,16.72
2023-05-16T11:29:53.086Z,16.77
2023-05-16T11:32:22.469Z,16.81
2023-05-16T11:34:52.196Z,16.85
2023-05-16T11:37:21.107Z,16.90
2023-05-16T11:39:49.289Z,16.93
2023-05-16T11:42:18.146Z,16.97
2023-05-16T11:44:46.659Z,17.00
2023-05-16T11:47:14.690Z,17.04
2023-05-16T11:49:43.485Z,17.07
2023-05-16T11:52:11.579Z,17.11
2023-05-16T11:54:40.641Z,17.13
2023-05-16T11:57:09.042Z,17.16
2023-05-16T11:59:37.338Z,17.19
2023-05-16T12:02:06.136Z,17.22
2023-05-16T12:04:36.853Z,17.25
2023-05-16T12:07:05.956Z,17.28
2023-05-16T12:09:33.975Z,17.31
2023-05-16T12:12:04.888Z,17.34
2023-05-16T12:14:32.880Z,17.37
2023-05-16T12:17:01.373Z,17.39
2023-05-16T12:19:29.645Z,17.42
2023-05-16T12:21:57.636Z,17.44
2023-05-16T12:24:30.339Z,17.46
2023-05-16T12:26:59.079Z,17.48
2023-05-16T12:29:27.144Z,17.49
2023-05-16T12:31:55.176Z,17.51
2023-05-16T12:34:23.490Z,17.51
2023-05-16T12:36:53.550Z,17.51
2023-05-16T12:39:22.984Z,17.52
2023-05-16T12:41:51.129Z,17.52
2023-05-16T12:44:19.901Z,17.52
2023-05-16T12:46:51.591Z,17.51
2023-05-16T12:49:20.687Z,17.51
2023-05-16T12:51:50.492Z,17.50
2023-05-16T12:54:18.719Z,17.51
2023-05-16T12:56:47.065Z,17.54
2023-05-16T12:59:15.558Z,17.57
2023-05-16T13:01:44.774Z,17.58
2023-05-16T13:04:16.941Z,17.58
2023-05-16T13:06:58.471Z,17.59
2023-05-16T13:09:31.415Z,17.60
2023-05-16T13:12:00.982Z,17.60
2023-05-16T13:14:29.080Z,17.60
2023-05-16T13:16:56.930Z,17.60
2023-05-16T13:19:25.184Z,17.60
2023-05-16T13:21:53.490Z,17.61
2023-05-16T13:24:21.568Z,17.61
2023-05-16T13:26:49.444Z,17.62
2023-05-16T13:29:17.299Z,17.62
2023-05-16T13:31:45.310Z,17.62
2023-05-16T13:34:13.460Z,17.62
2023-05-16T13:36:53.650Z,17.63
2023-05-16T13:39:22.712Z,17.63
2023-05-16T13:41:51.588Z,17.64
2023-05-16T13:44:19.845Z,17.65
2023-05-16T13:46:47.893Z,17.66
2023-05-16T13:49:16.162Z,17.67
2023-05-16T13:51:44.353Z,17.67
2023-05-16T13:54:12.409Z,17.68
2023-05-16T13:56:40.585Z,17.69
2023-05-16T13:59:10.825Z,17.69
2023-05-16T14:01:40.494Z,17.70
2023-05-16T14:04:08.506Z,17.71
2023-05-16T14:06:37.595Z,17.72
2023-05-16T14:09:05.485Z,17.72
2023-05-16T14:11:33.352Z,17.74
2023-05-16T14:14:01.178Z,17.75
2023-05-16T14:16:31.219Z,17.76
2023-05-16T14:18:59.333Z,17.77
2023-05-16T14:21:27.289Z,17.78
2023-05-16T14:23:55.259Z,17.79
2023-05-16T14:26:25.768Z,17.81
2023-05-16T14:28:53.794Z,17.82
2023-05-16T14:31:22.150Z,17.84
2023-05-16T14:33:50.564Z,17.85
2023-05-16T14:36:18.614Z,17.86
2023-05-16T14:38:46.786Z,17.87
2023-05-16T14:41:14.791Z,17.88
2023-05-16T14:43:42.707Z,17.89
2023-05-16T14:46:11.276Z,17.90
2023-05-16T14:48:39.555Z,17.92
2023-05-16T14:51:07.395Z,17.93
2023-05-16T14:53:35.475Z,17.93
2023-05-16T14:56:03.980Z,17.94
2023-05-16T14:58:32.246Z,17.95
2023-05-16T15:01:00.123Z,17.97
2023-05-16T15:03:28.029Z,17.97
2023-05-16T15:05:56.062Z,17.99
2023-05-16T15:08:24.061Z,18.00
2023-05-16T15:10:51.899Z,18.00
2023-05-16T15:13:19.762Z,18.00
2023-05-16T15:15:47.731Z,18.01
2023-05-16T15:18:15.901Z,18.02
2023-05-16T15:20:43.800Z,18.03
2023-05-16T15:23:12.169Z,18.03
2023-05-16T15:25:40.137Z,18.04
2023-05-16T15:28:08.047Z,18.04
2023-05-16T15:30:36.140Z,18.05
2023-05-16T15:33:04.092Z,18.05
2023-05-16T15:35:32.569Z,18.05
2023-05-16T15:38:00.738Z,18.06
2023-05-16T15:40:28.735Z,18.06
2023-05-16T15:42:56.639Z,18.06
2023-05-16T15:45:24.565Z,18.06
2023-05-16T15:47:52.502Z,18.06
2023-05-16T15:50:20.814Z,18.06
2023-05-16T15:52:49.293Z,18.06
2023-05-16T15:55:17.320Z,18.06
2023-05-16T15:57:45.358Z,18.05
2023-05-16T16:00:13.757Z,18.05
2023-05-16T16:02:44.971Z,18.06
2023-05-16T16:05:13.064Z,18.07
2023-05-16T16:07:41.340Z,18.08
2023-05-16T16:10:10.037Z,18.10
2023-05-16T16:12:37.976Z,18.12
2023-05-16T16:15:06.934Z,18.14
2023-05-16T16:17:34.941Z,18.16
2023-05-16T16:20:02.884Z,18.19
2023-05-16T16:22:31.816Z,18.21
2023-05-16T16:25:00.808Z,18.23
2023-05-16T16:27:28.846Z,18.24
2023-05-16T16:29:56.760Z,18.26
2023-05-16T16:32:24.718Z,18.28
2023-05-16T16:34:52.864Z,18.29
2023-05-16T16:37:21.132Z,18.30
2023-05-16T16:39:49.016Z,18.32
2023-05-16T16:42:16.888Z,18.33
2023-05-16T16:44:44.943Z,18.34
2023-05-16T16:47:13.186Z,18.35
2023-05-16T16:49:41.624Z,18.35
2023-05-16T16:52:09.805Z,18.36
2023-05-16T16:54:37.697Z,18.36
2023-05-16T16:57:05.751Z,18.37
2023-05-16T16:59:33.632Z,18.37
2023-05-16T17:02:01.564Z,18.37
2023-05-16T17:04:29.563Z,18.37
2023-05-16T17:06:57.983Z,18.37
2023-05-16T17:09:27.266Z,18.37
2023-05-16T17:11:55.257Z,18.37
2023-05-16T17:14:23.823Z,18.37
2023-05-16T17:16:52.206Z,18.36
2023-05-16T17:19:20.214Z,18.36
2023-05-16T17:21:48.243Z,18.36
2023-05-16T17:24:16.330Z,18.35
2023-05-16T17:26:44.298Z,18.35
2023-05-16T17:29:12.688Z,18.34
2023-05-16T17:31:40.657Z,18.33
2023-05-16T17:34:08.850Z,18.32
2023-05-16T17:36:38.236Z,18.30
2023-05-16T17:39:08.285Z,18.27
2023-05-16T17:41:36.558Z,18.25
2023-05-16T17:44:06.941Z,18.21
2023-05-16T17:46:36.889Z,18.18
2023-05-16T17:49:06.780Z,18.15
2023-05-16T17:51:47.583Z,18.12
2023-05-16T17:54:17.049Z,18.09
2023-05-16T17:56:48.742Z,18.06
2023-05-16T17:59:16.825Z,18.03
2023-05-16T18:01:45.051Z,18.00
2023-05-16T18:04:13.441Z,17.96
2023-05-16T18:06:42.023Z,17.93
2023-05-16T18:09:10.500Z,17.90
2023-05-16T18:11:39.559Z,17.87
2023-05-16T18:14:13.141Z,17.85
2023-05-16T18:16:41.141Z,17.82
2023-05-16T18:19:09.208Z,17.79
2023-05-16T18:21:38.359Z,17.77
2023-05-16T18:24:08.569Z,17.74
2023-05-16T18:26:36.850Z,17.72
2023-05-16T18:29:05.528Z,17.70
2023-05-16T18:31:34.111Z,17.68
2023-05-16T18:34:03.028Z,17.66
2023-05-16T18:36:32.104Z,17.64
2023-05-16T18:38:59.955Z,17.62
2023-05-16T18:41:30.177Z,17.60
2023-05-16T18:43:58.078Z,17.58
2023-05-16T18:46:25.953Z,17.57
2023-05-16T18:48:57.752Z,17.54
2023-05-16T18:51:25.843Z,17.53
2023-05-16T18:53:54.047Z,17.52
2023-05-16T18:56:22.588Z,17.50
2023-05-16T18:58:50.948Z,17.47
2023-05-16T19:01:22.339Z,17.46
2023-05-16T19:03:50.481Z,17.45
2023-05-16T19:06:18.620Z,17.44
2023-05-16T19:08:47.994Z,17.41
2023-05-16T19:11:17.729Z,17.40
2023-05-16T19:13:45.932Z,17.38
2023-05-16T19:16:14.283Z,17.36
2023-05-16T19:18:42.374Z,17.33
2023-05-16T19:21:13.793Z,17.32
2023-05-16T19:23:42.041Z,17.29
2023-05-16T19:26:10.200Z,17.27
2023-05-16T19:28:38.286Z,17.25
2023-05-16T19:31:06.971Z,17.24
2023-05-16T19:33:34.969Z,17.23
2023-05-16T19:36:06.117Z,17.21
2023-05-16T19:38:34.012Z,17.18
2023-05-16T19:41:02.015Z,17.16
2023-05-16T19:43:30.022Z,17.15
2023-05-16T19:45:57.920Z,17.13
2023-05-16T19:48:25.952Z,17.11
2023-05-16T19:50:54.142Z,17.09
2023-05-16T19:53:22.556Z,17.07
2023-05-16T19:55:50.712Z,17.05
2023-05-16T19:58:18.647Z,17.04
2023-05-16T20:00:47.384Z,17.03
2023-05-16T20:03:15.693Z,17.01
2023-05-16T20:05:43.845Z,17.00
2023-05-16T20:08:12.311Z,16.99
2023-05-16T20:10:40.492Z,16.98
2023-05-16T20:13:08.576Z,16.98
2023-05-16T20:15:36.544Z,16.98
2023-05-16T20:18:04.709Z,16.97
2023-05-16T20:20:32.824Z,16.97
2023-05-16T20:23:00.903Z,16.96
2023-05-16T20:25:28.895Z,16.95
2023-05-16T20:27:57.048Z,16.96
2023-05-16T20:30:24.924Z,16.98
2023-05-16T20:32:53.024Z,16.99
2023-05-16T20:35:21.038Z,17.01
2023-05-16T20:37:49.143Z,17.03
2023-05-16T20:40:17.412Z,17.05
2023-05-16T20:42:45.224Z,17.07
2023-05-16T20:45:13.074Z,17.09
2023-05-16T20:47:40.908Z,17.11
2023-05-16T20:50:09.142Z,17.13
2023-05-16T20:52:37.198Z,17.14
2023-05-16T20:55:05.590Z,17.16
2023-05-16T20:57:34.194Z,17.18
2023-05-16T21:00:02.251Z,17.20
2023-05-16T21:02:30.551Z,17.21
2023-05-16T21:05:02.185Z,17.22
2023-05-16T21:07:38.052Z,17.24
2023-05-16T21:10:06.518Z,17.26
2023-05-16T21:12:34.452Z,17.27
2023-05-16T21:15:03.829Z,17.29
2023-05-16T21:17:32.031Z,17.30
2023-05-16T21:20:00.660Z,17.30
2023-05-16T21:22:28.677Z,17.31
2023-05-16T21:24:56.619Z,17.33
2023-05-16T21:27:24.457Z,17.32
2023-05-16T21:29:52.571Z,17.32
2023-05-16T21:32:20.397Z,17.33
2023-05-16T21:34:48.277Z,17.34
2023-05-16T21:37:17.000Z,17.32
2023-05-16T21:39:44.848Z,17.32
2023-05-16T21:42:13.160Z,17.30
2023-05-16T21:44:41.451Z,17.30
2023-05-16T21:47:09.283Z,17.27
2023-05-16T21:49:37.290Z,17.26
2023-05-16T21:52:07.998Z,17.25
2023-05-16T21:54:36.200Z,17.23
2023-05-16T21:57:04.300Z,17.23
2023-05-16T21:59:32.074Z,17.23
2023-05-16T22:01:59.961Z,17.23
2023-05-16T22:04:28.124Z,17.23
2023-05-16T22:06:56.167Z,17.23
2023-05-16T22:09:24.250Z,17.22
2023-05-16T22:11:52.067Z,17.21
2023-05-16T22:14:20.068Z,17.20
2023-05-16T22:16:48.201Z,17.18
2023-05-16T22:19:16.164Z,17.16
2023-05-16T22:21:44.428Z,17.14
2023-05-16T22:24:12.332Z,17.12
2023-05-16T22:26:40.608Z,17.10
2023-05-16T22:29:08.567Z,17.08
2023-05-16T22:31:36.441Z,17.06
2023-05-16T22:34:04.511Z,17.03
2023-05-16T22:36:32.628Z,17.00
2023-05-16T22:39:00.563Z,16.97
2023-05-16T22:41:31.306Z,16.93
2023-05-16T22:43:59.211Z,16.91
2023-05-16T22:46:27.250Z,16.87
2023-05-16T22:48:55.208Z,16.83
2023-05-16T22:51:23.360Z,16.81
2023-05-16T22:53:51.222Z,16.78
2023-05-16T22:56:19.084Z,16.76
2023-05-16T22:58:47.124Z,16.73
2023-05-16T23:01:15.256Z,16.72
2023-05-16T23:03:43.479Z,16.69
2023-05-16T23:06:11.514Z,16.66
2023-05-16T23:08:39.519Z,16.63
2023-05-16T23:11:07.491Z,16.60
2023-05-16T23:13:35.592Z,16.57
2023-05-16T23:16:03.552Z,16.54
2023-05-16T23:18:31.601Z,16.53
2023-05-16T23:20:59.839Z,16.52
2023-05-16T23:23:27.799Z,16.52
2023-05-16T23:25:55.674Z,16.52
2023-05-16T23:28:23.720Z,16.52
2023-05-16T23:30:51.615Z,16.51
2023-05-16T23:33:19.654Z,16.50
2023-05-16T23:35:47.684Z,16.50
2023-05-16T23:38:16.049Z,16.49
2023-05-16T23:40:44.010Z,16.48
2023-05-16T23:43:11.869Z,16.48
2023-05-16T23:45:39.926Z,16.47
2023-05-16T23:48:08.095Z,16.46
2023-05-16T23:50:36.109Z,16.45
2023-05-16T23:53:04.392Z,16.44
2023-05-16T23:55:32.360Z,16.43
2023-05-16T23:58:00.305Z,16.42
